East Canyon Creek Flow Near ECWRF

♦ The data used to create the chart above are available in the table below.
♦ You may freely copy and paste the table below for further analysis.
♦ If higher frequency or longer history data are required, click here for the USGS NWISWeb page. The East Canyon Creek gage below the East Canyon Water Reclamation Facility is 10133800.
♦ For ECWRF data, contact SBWRD main office at 435.649.7993.
♦ The Utah Division of Wildlife Resources has advised that a minimum flow of 3.5 cfs, preferably 6.0 cfs, is required to support East Canyon Creek's cold-water fishery.

Disclaimer
The Snyderville Basin Water Reclamation District provides no warranty, expressed or implied, as to the relevance, accuracy, reliability or completeness of the data. The link to the USGS NWISWeb page is for convenience only. The Snyderville Basin Water Reclamation District does not have any control over the collection or maintenance of the stream flow data at the East Canyon Creek gage below ECWRF and cannot guarantee the relevance, timeliness, or accuracy of that data.

Provisional Flow Data (cfs)
Date Downstream Flow ECWRF Flow Upstream Flow % ECWRF Flow
5/18/2024 132 4.82 127.18 3.65
5/19/2024 136 4.88 131.12 3.59
5/20/2024 144 4.78 139.22 3.32
5/21/2024 138 4.67 133.33 3.38
5/22/2024 121 4.49 116.51 3.71
5/23/2024 110 4.42 105.58 4.02
5/24/2024 105 4.38 100.62 4.17
5/25/2024 115 4.58 110.42 3.98
5/26/2024 108 4.43 103.57 4.10
5/27/2024 99.9 4.44 95.46 4.44
5/28/2024 101 4.42 96.58 4.38
5/29/2024 107 4.31 102.69 4.03
5/30/2024 114 4.29 109.71 3.76
5/31/2024 116 4.18 111.82 3.60
6/1/2024 112 4.24 107.76 3.79
6/2/2024 112 4.18 107.82 3.73
6/3/2024 115 4.21 110.79 3.66
6/4/2024 114 4.2 109.8 3.68
6/5/2024 114 4.11 109.89 3.61
6/6/2024 110 4.23 105.77 3.85
6/7/2024 115 4.33 110.67 3.77
6/8/2024 115 4.29 110.71 3.73
6/9/2024 114 4.25 109.75 3.73
6/10/2024 107 4.11 102.89 3.84
6/11/2024 104 4 100 3.85
6/12/2024 94 3.88 90.12 4.13
6/13/2024 86.3 3.79 82.51 4.39
6/14/2024 81.8 3.81 77.99 4.66
6/15/2024 72.8 3.81 68.99 5.23
6/16/2024 70.2 3.75 66.45 5.34
6/17/2024 64.5 3.68 60.82 5.71
6/18/2024 59.2 3.57 55.63 6.03
6/19/2024 57 3.58 53.42 6.28
6/20/2024 51.9 3.59 48.31 6.92
6/21/2024 47.9 3.65 44.25 7.62
6/22/2024 45.4 3.6 41.8 7.93
6/23/2024 41.9 3.61 38.29 8.62
6/24/2024 40.6 3.48 37.12 8.57
6/25/2024 39.7 3.48 36.22 8.77
6/26/2024 38.6 3.5 35.1 9.07
6/27/2024 39.6 3.53 36.07 8.91
6/28/2024 36.6 3.59 33.01 9.81
6/29/2024 32.3 3.68 28.62 11.39
6/30/2024 31.1 3.64 27.46 11.70
7/1/2024 31 3.56 27.44 11.48
7/2/2024 31.1 3.62 27.48 11.64
7/3/2024 29.8 3.61 26.19 12.11
7/4/2024 29.5 3.65 25.85 12.37
7/5/2024 29.1 3.76 25.34 12.92
7/6/2024 27.4 3.65 23.75 13.32
7/7/2024 26.2 3.52 22.68 13.44
7/8/2024 29.8 3.41 26.39 11.44
7/9/2024 25.8 3.36 22.44 13.02
7/10/2024 24.4 3.32 21.08 13.61
7/11/2024 26.1 3.26 22.84 12.49
7/12/2024 24.8 3.33 21.47 13.43
7/13/2024 20.8 3.36 17.44 16.15
7/14/2024 21 3.32 17.68 15.81
7/15/2024 21.2 3.33 17.87 15.71
7/16/2024 19.9 3.33 16.57 16.73
7/17/2024 19.1 3.28 15.82 17.17
7/18/2024 19.2 3.24 15.96 16.88